sensor_id;sensor_type;location;lat;lon;timestamp;pressure;altitude;pressure_sealevel;temperature;humidity
70730;BME280;58315;53.336;55.932;2023-01-30T00:00:26;100403.53;;;-10.23;52.64
70730;BME280;58315;53.336;55.932;2023-01-30T00:02:53;100399.28;;;-10.27;52.43
70730;BME280;58315;53.336;55.932;2023-01-30T00:05:19;100406.06;;;-10.29;52.72
70730;BME280;58315;53.336;55.932;2023-01-30T00:07:46;100400.19;;;-10.15;52.72
70730;BME280;58315;53.336;55.932;2023-01-30T00:10:12;100411.31;;;-10.06;52.85
70730;BME280;58315;53.336;55.932;2023-01-30T00:12:39;100405.34;;;-10.08;52.75
70730;BME280;58315;53.336;55.932;2023-01-30T00:15:05;100401.00;;;-10.16;53.26
70730;BME280;58315;53.336;55.932;2023-01-30T00:17:32;100399.28;;;-10.27;53.51
70730;BME280;58315;53.336;55.932;2023-01-30T00:19:57;100397.56;;;-10.29;53.85
70730;BME280;58315;53.336;55.932;2023-01-30T00:22:24;100383.94;;;-10.27;54.02
70730;BME280;58315;53.336;55.932;2023-01-30T00:24:50;100379.63;;;-10.37;54.03
70730;BME280;58315;53.336;55.932;2023-01-30T00:27:16;100380.50;;;-10.32;54.34
70730;BME280;58315;53.336;55.932;2023-01-30T00:29:42;100375.44;;;-10.16;54.04
70730;BME280;58315;53.336;55.932;2023-01-30T00:32:08;100373.72;;;-10.21;54.37
70730;BME280;58315;53.336;55.932;2023-01-30T00:34:34;100367.78;;;-10.27;54.56
70730;BME280;58315;53.336;55.932;2023-01-30T00:37:00;100377.91;;;-10.35;54.39
70730;BME280;58315;53.336;55.932;2023-01-30T00:39:26;100386.44;;;-10.31;54.01
70730;BME280;58315;53.336;55.932;2023-01-30T00:41:53;100382.22;;;-10.31;53.88
70730;BME280;58315;53.336;55.932;2023-01-30T00:44:38;100378.84;;;-10.25;53.91
70730;BME280;58315;53.336;55.932;2023-01-30T00:47:22;100382.22;;;-10.25;53.77
70730;BME280;58315;53.336;55.932;2023-01-30T00:49:52;100383.91;;;-10.28;54.18
70730;BME280;58315;53.336;55.932;2023-01-30T00:52:18;100378.00;;;-10.27;54.65
70730;BME280;58315;53.336;55.932;2023-01-30T00:54:44;100390.72;;;-10.24;54.73
70730;BME280;58315;53.336;55.932;2023-01-30T00:57:10;100386.50;;;-10.21;54.91
70730;BME280;58315;53.336;55.932;2023-01-30T00:59:36;100394.19;;;-10.27;54.90
70730;BME280;58315;53.336;55.932;2023-01-30T01:02:03;100392.50;;;-10.15;54.72
70730;BME280;58315;53.336;55.932;2023-01-30T01:04:29;100385.69;;;-10.15;54.99
70730;BME280;58315;53.336;55.932;2023-01-30T01:06:54;100386.56;;;-10.11;54.84
70730;BME280;58315;53.336;55.932;2023-01-30T01:09:21;100375.41;;;-10.21;54.95
70730;BME280;58315;53.336;55.932;2023-01-30T01:11:47;100375.47;;;-10.15;54.85
70730;BME280;58315;53.336;55.932;2023-01-30T01:14:13;100375.47;;;-10.13;55.08
70730;BME280;58315;53.336;55.932;2023-01-30T01:16:40;100368.72;;;-10.04;54.83
70730;BME280;58315;53.336;55.932;2023-01-30T01:19:06;100379.84;;;-9.91;54.61
70730;BME280;58315;53.336;55.932;2023-01-30T01:21:32;100370.41;;;-10.04;54.87
70730;BME280;58315;53.336;55.932;2023-01-30T01:23:59;100361.91;;;-10.05;55.04
70730;BME280;58315;53.336;55.932;2023-01-30T01:26:26;100358.50;;;-9.99;54.82
70730;BME280;58315;53.336;55.932;2023-01-30T01:28:56;100353.44;;;-9.88;54.80
70730;BME280;58315;53.336;55.932;2023-01-30T01:31:22;100347.41;;;-10.03;54.83
70730;BME280;58315;53.336;55.932;2023-01-30T01:33:49;100342.22;;;-10.16;55.21
70730;BME280;58315;53.336;55.932;2023-01-30T01:36:18;100342.31;;;-10.04;55.47
70730;BME280;58315;53.336;55.932;2023-01-30T01:38:44;100349.94;;;-10.10;54.68
70730;BME280;58315;53.336;55.932;2023-01-30T01:41:14;100361.09;;;-9.96;54.96
70730;BME280;58315;53.336;55.932;2023-01-30T01:46:41;100354.38;;;-9.76;54.47
70730;BME280;58315;53.336;55.932;2023-01-30T01:51:46;100346.69;;;-9.79;54.31
70730;BME280;58315;53.336;55.932;2023-01-30T01:54:19;100338.13;;;-9.81;54.54
70730;BME280;58315;53.336;55.932;2023-01-30T01:56:48;100349.22;;;-9.82;54.46
70730;BME280;58315;53.336;55.932;2023-01-30T01:59:27;100340.72;;;-9.75;54.38
70730;BME280;58315;53.336;55.932;2023-01-30T02:02:00;100361.16;;;-9.82;54.48
70730;BME280;58315;53.336;55.932;2023-01-30T02:04:28;100372.22;;;-9.80;54.47
70730;BME280;58315;53.336;55.932;2023-01-30T02:07:16;100351.81;;;-9.73;54.55
70730;BME280;58315;53.336;55.932;2023-01-30T02:09:43;100351.81;;;-9.69;54.55
70730;BME280;58315;53.336;55.932;2023-01-30T02:12:10;100349.25;;;-9.76;54.21
70730;BME280;58315;53.336;55.932;2023-01-30T02:14:38;100338.13;;;-9.81;54.79
70730;BME280;58315;53.336;55.932;2023-01-30T02:17:24;100336.47;;;-9.76;54.61
70730;BME280;58315;53.336;55.932;2023-01-30T02:23:02;100338.16;;;-9.78;54.76
70730;BME280;58315;53.336;55.932;2023-01-30T02:39:51;100341.59;;;-9.66;55.12
70730;BME280;58315;53.336;55.932;2023-01-30T02:42:10;100345.06;;;-9.61;55.18
70730;BME280;58315;53.336;55.932;2023-01-30T02:44:45;100344.16;;;-9.66;55.27
70730;BME280;58315;53.336;55.932;2023-01-30T02:47:22;100346.69;;;-9.76;55.59
70730;BME280;58315;53.336;55.932;2023-01-30T02:49:55;100345.00;;;-9.71;55.79
70730;BME280;58315;53.336;55.932;2023-01-30T02:52:26;100348.44;;;-9.67;55.49
70730;BME280;58315;53.336;55.932;2023-01-30T02:54:53;100334.75;;;-9.69;55.28
70730;BME280;58315;53.336;55.932;2023-01-30T02:57:22;100333.06;;;-9.70;55.51
70730;BME280;58315;53.336;55.932;2023-01-30T02:59:58;100330.53;;;-9.72;55.25
70730;BME280;58315;53.336;55.932;2023-01-30T03:13:09;100345.13;;;-9.37;55.13
70730;BME280;58315;53.336;55.932;2023-01-30T03:15:49;100345.97;;;-9.42;54.91
70730;BME280;58315;53.336;55.932;2023-01-30T03:18:17;100350.22;;;-9.43;55.15
70730;BME280;58315;53.336;55.932;2023-01-30T03:20:44;100342.53;;;-9.40;55.28
70730;BME280;58315;53.336;55.932;2023-01-30T03:23:28;100343.41;;;-9.38;55.10
70730;BME280;58315;53.336;55.932;2023-01-30T03:25:54;100345.13;;;-9.37;55.15
70730;BME280;58315;53.336;55.932;2023-01-30T03:28:20;100346.88;;;-9.28;55.24
70730;BME280;58315;53.336;55.932;2023-01-30T03:30:47;100343.44;;;-9.32;55.53
70730;BME280;58315;53.336;55.932;2023-01-30T03:33:13;100353.66;;;-9.29;55.44
70730;BME280;58315;53.336;55.932;2023-01-30T03:35:45;100356.25;;;-9.21;55.45
70730;BME280;58315;53.336;55.932;2023-01-30T03:38:12;100357.94;;;-9.28;55.38
70730;BME280;58315;53.336;55.932;2023-01-30T03:40:39;100351.09;;;-9.33;55.51
70730;BME280;58315;53.336;55.932;2023-01-30T03:43:06;100352.81;;;-9.35;55.76
70730;BME280;58315;53.336;55.932;2023-01-30T03:45:34;100352.75;;;-9.48;55.45
70730;BME280;58315;53.336;55.932;2023-01-30T03:48:00;100351.97;;;-9.36;55.67
70730;BME280;58315;53.336;55.932;2023-01-30T03:50:26;100351.09;;;-9.35;55.41
70730;BME280;58315;53.336;55.932;2023-01-30T03:52:54;100346.81;;;-9.33;55.70
70730;BME280;58315;53.336;55.932;2023-01-30T03:55:21;100354.56;;;-9.17;55.82
70730;BME280;58315;53.336;55.932;2023-01-30T03:57:47;100356.25;;;-9.15;55.35
70730;BME280;58315;53.336;55.932;2023-01-30T04:00:14;100351.97;;;-9.14;55.31
70730;BME280;58315;53.336;55.932;2023-01-30T04:02:42;100348.59;;;-9.13;55.53
70730;BME280;58315;53.336;55.932;2023-01-30T04:05:11;100352.88;;;-9.09;55.64
70730;BME280;58315;53.336;55.932;2023-01-30T04:07:41;100361.41;;;-9.06;55.60
70730;BME280;58315;53.336;55.932;2023-01-30T04:10:09;100362.25;;;-9.04;55.19
70730;BME280;58315;53.336;55.932;2023-01-30T04:12:35;100357.13;;;-9.16;55.50
70730;BME280;58315;53.336;55.932;2023-01-30T04:15:01;100353.69;;;-9.24;56.04
70730;BME280;58315;53.336;55.932;2023-01-30T04:17:47;100348.56;;;-9.26;56.11
70730;BME280;58315;53.336;55.932;2023-01-30T04:20:28;100348.56;;;-9.23;56.16
70730;BME280;58315;53.336;55.932;2023-01-30T04:22:55;100345.16;;;-9.18;56.21
70730;BME280;58315;53.336;55.932;2023-01-30T04:25:23;100343.47;;;-9.13;56.11
70730;BME280;58315;53.336;55.932;2023-01-30T04:27:50;100343.50;;;-8.98;55.84
70730;BME280;58315;53.336;55.932;2023-01-30T04:30:23;100342.63;;;-9.05;55.80
70730;BME280;58315;53.336;55.932;2023-01-30T04:32:53;100338.34;;;-9.00;55.58
70730;BME280;58315;53.336;55.932;2023-01-30T04:35:19;100346.91;;;-8.96;55.54
70730;BME280;58315;53.336;55.932;2023-01-30T04:37:45;100352.88;;;-8.94;55.64
70730;BME280;58315;53.336;55.932;2023-01-30T04:40:16;100353.72;;;-8.93;55.33
70730;BME280;58315;53.336;55.932;2023-01-30T04:42:43;100354.59;;;-8.94;55.28
70730;BME280;58315;53.336;55.932;2023-01-30T04:45:48;100360.59;;;-8.72;55.14
70730;BME280;58315;53.336;55.932;2023-01-30T04:48:15;100367.44;;;-8.65;55.06
70730;BME280;58315;53.336;55.932;2023-01-30T04:50:43;100364.84;;;-8.59;54.64
70730;BME280;58315;53.336;55.932;2023-01-30T04:53:12;100365.69;;;-8.63;54.56
70730;BME280;58315;53.336;55.932;2023-01-30T04:55:38;100369.13;;;-8.61;54.28
70730;BME280;58315;53.336;55.932;2023-01-30T04:58:04;100369.97;;;-8.64;54.31
70730;BME280;58315;53.336;55.932;2023-01-30T05:00:30;100369.97;;;-8.61;54.27
70730;BME280;58315;53.336;55.932;2023-01-30T05:02:59;100368.28;;;-8.57;54.21
70730;BME280;58315;53.336;55.932;2023-01-30T05:05:26;100365.69;;;-8.63;54.07
70730;BME280;58315;53.336;55.932;2023-01-30T05:07:52;100373.41;;;-8.48;53.70
70730;BME280;58315;53.336;55.932;2023-01-30T05:10:18;100374.22;;;-8.37;53.42
70730;BME280;58315;53.336;55.932;2023-01-30T05:12:44;100363.94;;;-8.28;53.26
70730;BME280;58315;53.336;55.932;2023-01-30T05:15:11;100369.97;;;-8.38;53.05
70730;BME280;58315;53.336;55.932;2023-01-30T05:17:37;100369.09;;;-8.37;53.39
70730;BME280;58315;53.336;55.932;2023-01-30T05:20:05;100376.78;;;-8.29;53.04
70730;BME280;58315;53.336;55.932;2023-01-30T05:22:32;100379.38;;;-8.40;52.61
70730;BME280;58315;53.336;55.932;2023-01-30T05:24:58;100375.91;;;-8.28;52.65
70730;BME280;58315;53.336;55.932;2023-01-30T05:27:24;100373.34;;;-8.23;52.26
70730;BME280;58315;53.336;55.932;2023-01-30T05:29:50;100372.47;;;-8.10;52.38
70730;BME280;58315;53.336;55.932;2023-01-30T05:32:17;100369.91;;;-8.10;52.14
70730;BME280;58315;53.336;55.932;2023-01-30T05:34:43;100364.78;;;-8.27;52.10
70730;BME280;58315;53.336;55.932;2023-01-30T05:37:11;100370.78;;;-8.17;52.15
70730;BME280;58315;53.336;55.932;2023-01-30T05:39:37;100363.97;;;-8.37;52.04
70730;BME280;58315;53.336;55.932;2023-01-30T05:42:03;100358.84;;;-8.29;52.38
70730;BME280;58315;53.336;55.932;2023-01-30T05:44:30;100362.22;;;-8.21;52.18
70730;BME280;58315;53.336;55.932;2023-01-30T05:46:56;100364.78;;;-8.18;51.95
70730;BME280;58315;53.336;55.932;2023-01-30T05:49:22;100364.75;;;-8.12;52.13
70730;BME280;58315;53.336;55.932;2023-01-30T05:51:48;100366.47;;;-8.09;52.16
70730;BME280;58315;53.336;55.932;2023-01-30T05:54:14;100363.03;;;-7.96;52.64
70730;BME280;58315;53.336;55.932;2023-01-30T05:56:40;100362.16;;;-7.92;52.14
70730;BME280;58315;53.336;55.932;2023-01-30T05:59:10;100364.72;;;-7.86;51.79
70730;BME280;58315;53.336;55.932;2023-01-30T06:01:36;100369.84;;;-7.93;51.40
70730;BME280;58315;53.336;55.932;2023-01-30T06:04:02;100361.31;;;-7.91;51.56
70730;BME280;58315;53.336;55.932;2023-01-30T06:06:48;100377.53;;;-7.83;51.25
70730;BME280;58315;53.336;55.932;2023-01-30T06:09:15;100382.66;;;-7.75;51.17
70730;BME280;58315;53.336;55.932;2023-01-30T06:11:41;100390.34;;;-7.83;50.72
70730;BME280;58315;53.336;55.932;2023-01-30T06:14:07;100381.81;;;-7.77;50.81
70730;BME280;58315;53.336;55.932;2023-01-30T06:16:33;100386.06;;;-7.70;50.83
70730;BME280;58315;53.336;55.932;2023-01-30T06:18:59;100380.91;;;-7.68;50.32
70730;BME280;58315;53.336;55.932;2023-01-30T06:21:25;100380.88;;;-7.62;50.53
70730;BME280;58315;53.336;55.932;2023-01-30T06:23:51;100371.44;;;-7.53;50.38
70730;BME280;58315;53.336;55.932;2023-01-30T06:26:17;100367.09;;;-7.40;50.17
70730;BME280;58315;53.336;55.932;2023-01-30T06:28:42;100360.25;;;-7.35;50.03
70730;BME280;58315;53.336;55.932;2023-01-30T06:31:08;100362.81;;;-7.42;49.49
70730;BME280;58315;53.336;55.932;2023-01-30T06:33:35;100348.41;;;-7.72;49.90
70730;BME280;58315;53.336;55.932;2023-01-30T06:36:01;100353.56;;;-7.74;50.37
70730;BME280;58315;53.336;55.932;2023-01-30T06:38:27;100345.78;;;-7.59;50.00
70730;BME280;58315;53.336;55.932;2023-01-30T06:40:53;100360.34;;;-7.56;49.87
70730;BME280;58315;53.336;55.932;2023-01-30T06:43:19;100362.03;;;-7.49;49.72
70730;BME280;58315;53.336;55.932;2023-01-30T06:45:45;100362.00;;;-7.50;49.66
70730;BME280;58315;53.336;55.932;2023-01-30T06:48:11;100367.13;;;-7.43;50.02
70730;BME280;58315;53.336;55.932;2023-01-30T06:50:37;100363.75;;;-7.59;49.89
70730;BME280;58315;53.336;55.932;2023-01-30T06:53:05;100350.09;;;-7.59;50.14
70730;BME280;58315;53.336;55.932;2023-01-30T06:55:33;100355.19;;;-7.53;50.00
70730;BME280;58315;53.336;55.932;2023-01-30T06:58:03;100326.00;;;-7.35;50.04
70730;BME280;58315;53.336;55.932;2023-01-30T07:00:29;100325.06;;;-7.19;49.60
70730;BME280;58315;53.336;55.932;2023-01-30T07:02:55;100334.50;;;-7.22;49.40
70730;BME280;58315;53.336;55.932;2023-01-30T07:05:21;100330.13;;;-7.10;49.20
70730;BME280;58315;53.336;55.932;2023-01-30T07:07:47;100337.94;;;-7.26;49.22
70730;BME280;58315;53.336;55.932;2023-01-30T07:10:13;100335.31;;;-7.19;49.50
70730;BME280;58315;53.336;55.932;2023-01-30T07:12:39;100342.97;;;-7.08;49.58
70730;BME280;58315;53.336;55.932;2023-01-30T07:15:06;100337.75;;;-6.99;49.14
70730;BME280;58315;53.336;55.932;2023-01-30T07:17:32;100336.84;;;-6.89;49.34
70730;BME280;58315;53.336;55.932;2023-01-30T07:19:58;100335.22;;;-7.00;49.37
70730;BME280;58315;53.336;55.932;2023-01-30T07:22:25;100330.03;;;-6.99;49.33
70730;BME280;58315;53.336;55.932;2023-01-30T07:24:51;100335.97;;;-6.88;48.94
70730;BME280;58315;53.336;55.932;2023-01-30T07:27:17;100329.00;;;-6.76;49.18
70730;BME280;58315;53.336;55.932;2023-01-30T07:29:42;100334.06;;;-6.61;48.78
70730;BME280;58315;53.336;55.932;2023-01-30T07:32:18;100325.63;;;-6.78;48.77
70730;BME280;58315;53.336;55.932;2023-01-30T07:34:45;100322.28;;;-6.90;48.59
70730;BME280;58315;53.336;55.932;2023-01-30T07:37:11;100322.19;;;-6.76;48.31
70730;BME280;58315;53.336;55.932;2023-01-30T07:39:37;100328.09;;;-6.69;48.32
70730;BME280;58315;53.336;55.932;2023-01-30T07:42:03;100323.91;;;-6.81;48.22
70730;BME280;58315;53.336;55.932;2023-01-30T07:44:32;100332.47;;;-6.77;48.53
70730;BME280;58315;53.336;55.932;2023-01-30T07:46:59;100329.97;;;-6.88;48.16
70730;BME280;58315;53.336;55.932;2023-01-30T07:49:25;100336.03;;;-6.97;48.47
70730;BME280;58315;53.336;55.932;2023-01-30T07:51:51;100332.59;;;-6.96;48.97
70730;BME280;58315;53.336;55.932;2023-01-30T07:54:17;100324.97;;;-7.05;48.97
70730;BME280;58315;53.336;55.932;2023-01-30T07:56:43;100324.06;;;-7.01;49.21
70730;BME280;58315;53.336;55.932;2023-01-30T07:59:10;100336.88;;;-6.93;48.93
70730;BME280;58315;53.336;55.932;2023-01-30T08:01:36;100328.38;;;-7.05;48.83
70730;BME280;58315;53.336;55.932;2023-01-30T08:04:02;100314.66;;;-7.04;48.97
70730;BME280;58315;53.336;55.932;2023-01-30T08:06:28;100314.69;;;-7.05;49.27
70730;BME280;58315;53.336;55.932;2023-01-30T08:08:55;100331.00;;;-7.12;49.98
70730;BME280;58315;53.336;55.932;2023-01-30T08:11:21;100314.69;;;-7.05;49.37
70730;BME280;58315;53.336;55.932;2023-01-30T08:13:47;100319.66;;;-6.82;49.51
70730;BME280;58315;53.336;55.932;2023-01-30T08:16:13;100322.09;;;-6.67;48.87
70730;BME280;58315;53.336;55.932;2023-01-30T08:18:39;100325.44;;;-6.59;49.10
70730;BME280;58315;53.336;55.932;2023-01-30T08:21:05;100321.78;;;-6.32;49.03
70730;BME280;58315;53.336;55.932;2023-01-30T08:23:32;100322.31;;;-5.99;48.89
70730;BME280;58315;53.336;55.932;2023-01-30T08:26:01;100323.69;;;-5.75;48.16
70730;BME280;58315;53.336;55.932;2023-01-30T08:28:28;100336.53;;;-5.72;47.89
70730;BME280;58315;53.336;55.932;2023-01-30T08:30:54;100333.13;;;-5.72;47.46
70730;BME280;58315;53.336;55.932;2023-01-30T08:33:21;100334.63;;;-5.56;47.44
70730;BME280;58315;53.336;55.932;2023-01-30T08:35:50;100351.38;;;-5.23;47.47
70730;BME280;58315;53.336;55.932;2023-01-30T08:38:16;100330.31;;;-4.94;47.30
70730;BME280;58315;53.336;55.932;2023-01-30T08:40:43;100330.03;;;-4.75;46.64
70730;BME280;58315;53.336;55.932;2023-01-30T08:43:09;100341.78;;;-4.57;45.87
70730;BME280;58315;53.336;55.932;2023-01-30T08:45:35;100340.63;;;-4.40;45.94
70730;BME280;58315;53.336;55.932;2023-01-30T08:48:03;100332.19;;;-4.48;45.63
70730;BME280;58315;53.336;55.932;2023-01-30T08:50:32;100334.09;;;-4.59;46.15
70730;BME280;58315;53.336;55.932;2023-01-30T08:53:04;100329.22;;;-4.77;45.46
70730;BME280;58315;53.336;55.932;2023-01-30T08:55:30;100329.66;;;-5.06;45.99
70730;BME280;58315;53.336;55.932;2023-01-30T08:57:56;100320.22;;;-5.06;46.31
70730;BME280;58315;53.336;55.932;2023-01-30T09:00:22;100317.53;;;-5.00;46.05
70730;BME280;58315;53.336;55.932;2023-01-30T09:02:54;100325.13;;;-4.91;46.29
70730;BME280;58315;53.336;55.932;2023-01-30T09:05:20;100324.44;;;-5.00;46.48
70730;BME280;58315;53.336;55.932;2023-01-30T09:07:46;100322.09;;;-5.17;46.97
70730;BME280;58315;53.336;55.932;2023-01-30T09:10:12;100330.69;;;-5.18;46.65
70730;BME280;58315;53.336;55.932;2023-01-30T09:12:39;100331.69;;;-5.28;46.66
70730;BME280;58315;53.336;55.932;2023-01-30T09:15:05;100324.09;;;-5.39;47.04
70730;BME280;58315;53.336;55.932;2023-01-30T09:17:31;100328.56;;;-5.50;47.32
70730;BME280;58315;53.336;55.932;2023-01-30T09:19:57;100330.34;;;-5.55;46.90
70730;BME280;58315;53.336;55.932;2023-01-30T09:22:23;100324.31;;;-5.56;47.19
70730;BME280;58315;53.336;55.932;2023-01-30T09:24:49;100326.13;;;-5.61;47.26
70730;BME280;58315;53.336;55.932;2023-01-30T09:27:15;100314.34;;;-5.80;47.52
70730;BME280;58315;53.336;55.932;2023-01-30T09:29:41;100318.81;;;-5.95;47.95
70730;BME280;58315;53.336;55.932;2023-01-30T09:32:07;100317.16;;;-6.00;48.31
70730;BME280;58315;53.336;55.932;2023-01-30T09:34:33;100298.28;;;-5.99;48.55
70730;BME280;58315;53.336;55.932;2023-01-30T09:36:59;100310.91;;;-5.83;48.40
70730;BME280;58315;53.336;55.932;2023-01-30T09:39:29;100311.72;;;-5.79;48.20
70730;BME280;58315;53.336;55.932;2023-01-30T09:47:14;100303.06;;;-5.70;48.17
70730;BME280;58315;53.336;55.932;2023-01-30T09:52:59;100313.06;;;-5.47;48.17
70730;BME280;58315;53.336;55.932;2023-01-30T09:55:29;100306.13;;;-5.42;48.21
70730;BME280;58315;53.336;55.932;2023-01-30T09:57:57;100299.38;;;-5.51;48.23
70730;BME280;58315;53.336;55.932;2023-01-30T10:00:34;100306.84;;;-5.32;48.21
70730;BME280;58315;53.336;55.932;2023-01-30T10:05:43;100312.84;;;-5.32;48.12
70730;BME280;58315;53.336;55.932;2023-01-30T10:08:28;100305.34;;;-5.49;48.74
70730;BME280;58315;53.336;55.932;2023-01-30T10:17:20;100309.34;;;-5.28;48.48
70730;BME280;58315;53.336;55.932;2023-01-30T10:20:13;100317.00;;;-5.23;48.59
70730;BME280;58315;53.336;55.932;2023-01-30T10:25:41;100305.63;;;-5.07;48.34
70730;BME280;58315;53.336;55.932;2023-01-30T10:28:25;100308.91;;;-4.97;48.75
70730;BME280;58315;53.336;55.932;2023-01-30T10:31:08;100298.69;;;-5.05;47.80
70730;BME280;58315;53.336;55.932;2023-01-30T10:33:57;100293.53;;;-5.03;47.87
70730;BME280;58315;53.336;55.932;2023-01-30T10:36:37;100295.16;;;-4.96;47.83
70730;BME280;58315;53.336;55.932;2023-01-30T10:41:58;100292.66;;;-5.01;48.07
70730;BME280;58315;53.336;55.932;2023-01-30T10:44:27;100298.66;;;-5.02;48.24
70730;BME280;58315;53.336;55.932;2023-01-30T10:49:49;100291.84;;;-5.04;47.86
70730;BME280;58315;53.336;55.932;2023-01-30T10:52:43;100285.03;;;-5.10;47.96
70730;BME280;58315;53.336;55.932;2023-01-30T10:55:39;100282.34;;;-5.01;48.30
70730;BME280;58315;53.336;55.932;2023-01-30T11:01:31;100272.72;;;-4.91;47.73
70730;BME280;58315;53.336;55.932;2023-01-30T11:04:02;100281.78;;;-5.21;48.22
70730;BME280;58315;53.336;55.932;2023-01-30T11:06:30;100277.66;;;-5.35;48.54
70730;BME280;58315;53.336;55.932;2023-01-30T11:08:57;100281.19;;;-5.40;48.93
70730;BME280;58315;53.336;55.932;2023-01-30T11:11:29;100269.03;;;-5.30;48.80
70730;BME280;58315;53.336;55.932;2023-01-30T11:14:07;100281.09;;;-5.32;48.87
70730;BME280;58315;53.336;55.932;2023-01-30T11:16:59;100276.84;;;-5.37;49.30
70730;BME280;58315;53.336;55.932;2023-01-30T11:19:32;100277.56;;;-5.27;49.05
70730;BME280;58315;53.336;55.932;2023-01-30T11:22:00;100269.16;;;-5.40;49.24
70730;BME280;58315;53.336;55.932;2023-01-30T11:24:30;100272.66;;;-5.44;48.68
70730;BME280;58315;53.336;55.932;2023-01-30T11:27:15;100270.34;;;-5.62;49.38
70730;BME280;58315;53.336;55.932;2023-01-30T11:29:41;100266.13;;;-5.69;49.64
70730;BME280;58315;53.336;55.932;2023-01-30T11:32:13;100270.38;;;-5.67;49.38
70730;BME280;58315;53.336;55.932;2023-01-30T11:34:42;100263.53;;;-5.66;49.52
70730;BME280;58315;53.336;55.932;2023-01-30T11:37:38;100262.66;;;-5.65;49.17
70730;BME280;58315;53.336;55.932;2023-01-30T11:40:26;100265.41;;;-5.79;49.51
70730;BME280;58315;53.336;55.932;2023-01-30T11:43:01;100263.16;;;-6.02;49.51
70730;BME280;58315;53.336;55.932;2023-01-30T11:45:27;100255.72;;;-6.29;49.98
70730;BME280;58315;53.336;55.932;2023-01-30T11:48:17;100251.44;;;-6.27;50.16
70730;BME280;58315;53.336;55.932;2023-01-30T11:50:46;100264.34;;;-6.32;50.81
70730;BME280;58315;53.336;55.932;2023-01-30T11:53:26;100275.44;;;-6.27;50.36
70730;BME280;58315;53.336;55.932;2023-01-30T11:55:57;100267.00;;;-6.41;50.56
70730;BME280;58315;53.336;55.932;2023-01-30T11:58:29;100264.41;;;-6.38;50.59
70730;BME280;58315;53.336;55.932;2023-01-30T12:00:57;100269.63;;;-6.47;50.51
70730;BME280;58315;53.336;55.932;2023-01-30T12:03:23;100269.59;;;-6.44;50.65
70730;BME280;58315;53.336;55.932;2023-01-30T12:06:10;100278.13;;;-6.41;50.16
70730;BME280;58315;53.336;55.932;2023-01-30T12:08:39;100273.91;;;-6.43;50.25
70730;BME280;58315;53.336;55.932;2023-01-30T12:11:24;100274.66;;;-6.35;50.45
70730;BME280;58315;53.336;55.932;2023-01-30T12:13:54;100274.81;;;-6.52;50.50
70730;BME280;58315;53.336;55.932;2023-01-30T12:16:39;100273.91;;;-6.45;51.00
70730;BME280;58315;53.336;55.932;2023-01-30T12:25:20;100275.78;;;-6.62;51.33
70730;BME280;58315;53.336;55.932;2023-01-30T12:27:57;100269.72;;;-6.58;50.93
70730;BME280;58315;53.336;55.932;2023-01-30T12:30:38;100265.59;;;-6.71;51.15
70730;BME280;58315;53.336;55.932;2023-01-30T12:33:11;100253.56;;;-6.68;51.28
70730;BME280;58315;53.336;55.932;2023-01-30T12:57:05;100248.00;;;-7.19;51.33
70730;BME280;58315;53.336;55.932;2023-01-30T12:59:47;100248.00;;;-7.22;51.32
70730;BME280;58315;53.336;55.932;2023-01-30T13:05:16;100252.41;;;-7.35;51.53
70730;BME280;58315;53.336;55.932;2023-01-30T13:11:28;100244.00;;;-7.61;51.60
70730;BME280;58315;53.336;55.932;2023-01-30T13:19:59;100254.28;;;-7.66;51.90
70730;BME280;58315;53.336;55.932;2023-01-30T13:26:23;100243.16;;;-7.60;51.24
70730;BME280;58315;53.336;55.932;2023-01-30T13:28:22;100244.09;;;-7.80;51.47
70730;BME280;58315;53.336;55.932;2023-01-30T13:30:51;100250.13;;;-7.91;51.72
70730;BME280;58315;53.336;55.932;2023-01-30T13:33:39;100256.09;;;-7.85;51.71
70730;BME280;58315;53.336;55.932;2023-01-30T13:36:19;100263.81;;;-7.88;51.73
70730;BME280;58315;53.336;55.932;2023-01-30T13:41:43;100264.75;;;-8.13;51.85
70730;BME280;58315;53.336;55.932;2023-01-30T13:44:26;100265.59;;;-8.07;51.98
70730;BME280;58315;53.336;55.932;2023-01-30T13:46:54;100264.75;;;-8.07;52.05
70730;BME280;58315;53.336;55.932;2023-01-30T13:54:59;100250.06;;;-7.74;51.62
70730;BME280;58315;53.336;55.932;2023-01-30T14:08:23;100239.94;;;-8.01;51.45
70730;BME280;58315;53.336;55.932;2023-01-30T14:10:50;100239.13;;;-8.10;51.37
70730;BME280;58315;53.336;55.932;2023-01-30T14:13:17;100238.34;;;-8.29;51.40
70730;BME280;58315;53.336;55.932;2023-01-30T14:15:54;100238.28;;;-8.17;51.70
70730;BME280;58315;53.336;55.932;2023-01-30T14:18:30;100233.19;;;-8.31;51.48
70730;BME280;58315;53.336;55.932;2023-01-30T14:21:18;100235.75;;;-8.31;51.88
70730;BME280;58315;53.336;55.932;2023-01-30T14:24:01;100235.84;;;-8.43;51.98
70730;BME280;58315;53.336;55.932;2023-01-30T14:39:56;100217.06;;;-8.51;52.97
70730;BME280;58315;53.336;55.932;2023-01-30T14:42:29;100218.69;;;-8.36;53.01
70730;BME280;58315;53.336;55.932;2023-01-30T14:47:36;100218.69;;;-8.36;52.76
70730;BME280;58315;53.336;55.932;2023-01-30T14:50:02;100221.25;;;-8.32;52.71
70730;BME280;58315;53.336;55.932;2023-01-30T14:52:38;100215.31;;;-8.43;53.47
70730;BME280;58315;53.336;55.932;2023-01-30T14:55:13;100223.78;;;-8.30;53.58
70730;BME280;58315;53.336;55.932;2023-01-30T14:57:51;100204.97;;;-8.25;53.75
70730;BME280;58315;53.336;55.932;2023-01-30T15:00:23;100216.97;;;-8.30;53.64
70730;BME280;58315;53.336;55.932;2023-01-30T15:02:59;100220.41;;;-8.37;53.40
70730;BME280;58315;53.336;55.932;2023-01-30T15:05:31;100226.41;;;-8.41;53.65
70730;BME280;58315;53.336;55.932;2023-01-30T15:08:05;100227.28;;;-8.40;53.21
70730;BME280;58315;53.336;55.932;2023-01-30T15:10:51;100226.50;;;-8.62;53.79
70730;BME280;58315;53.336;55.932;2023-01-30T15:16:50;100220.50;;;-8.64;53.86